createdAt,value
2018-09-13T00:03:10.870Z,99.90
2018-09-13T00:13:12.121Z,99.90
2018-09-13T00:23:13.750Z,99.90
2018-09-13T00:33:15.776Z,99.90
2018-09-13T00:43:17.034Z,99.90
2018-09-13T00:53:18.602Z,99.90
2018-09-13T01:03:19.842Z,99.90
2018-09-13T01:13:21.113Z,99.90
2018-09-13T01:23:22.373Z,99.90
2018-09-13T01:33:24.760Z,99.90
2018-09-13T01:43:26.118Z,99.90
2018-09-13T01:53:27.373Z,99.90
2018-09-13T02:03:28.639Z,99.90
2018-09-13T02:13:30.686Z,99.90
2018-09-13T02:23:31.966Z,99.90
2018-09-13T02:33:33.992Z,99.90
2018-09-13T02:43:35.254Z,99.90
2018-09-13T02:53:36.498Z,99.90
2018-09-13T03:03:37.781Z,99.90
2018-09-13T03:13:39.050Z,99.90
2018-09-13T03:23:40.347Z,99.90
2018-09-13T03:33:41.601Z,99.90
2018-09-13T03:43:42.940Z,99.90
2018-09-13T03:53:44.194Z,99.90
2018-09-13T04:03:45.465Z,99.90
2018-09-13T04:13:47.498Z,99.90
2018-09-13T04:33:55.168Z,99.90
2018-09-13T04:43:57.186Z,99.90
2018-09-13T04:53:58.447Z,99.90
2018-09-13T05:04:00.519Z,99.90
2018-09-13T05:14:01.782Z,99.90
2018-09-13T05:24:03.066Z,99.90
2018-09-13T05:34:05.099Z,99.90
2018-09-13T05:44:06.374Z,99.90
2018-09-13T05:54:08.406Z,99.90
2018-09-13T06:04:09.662Z,99.90
2018-09-13T06:14:10.926Z,99.90
2018-09-13T06:24:12.226Z,99.90
2018-09-13T06:34:13.467Z,99.90
2018-09-13T06:44:15.530Z,99.90
2018-09-13T06:54:16.915Z,99.90
2018-09-13T07:04:18.151Z,99.90
2018-09-13T07:14:19.430Z,99.90
2018-09-13T07:24:20.686Z,99.90
2018-09-13T07:34:21.950Z,97.40
2018-09-13T07:44:23.355Z,96.60
2018-09-13T07:54:24.590Z,85.60
2018-09-13T08:04:25.823Z,87.10
2018-09-13T08:14:27.073Z,86.90
2018-09-13T08:24:28.408Z,83.20
2018-09-13T08:34:33.043Z,79.20
2018-09-13T08:44:34.254Z,63.90
2018-09-13T08:54:35.542Z,49.50
2018-09-13T09:04:36.826Z,40.00
2018-09-13T09:14:38.098Z,33.80
2018-09-13T09:24:40.147Z,30.30
2018-09-13T09:34:41.485Z,30.20
2018-09-13T09:44:42.767Z,32.50
2018-09-13T09:54:44.038Z,32.90
2018-09-13T10:04:45.359Z,33.00
2018-09-13T10:14:47.306Z,33.70
2018-09-13T10:24:48.594Z,33.70
2018-09-13T10:34:50.625Z,35.10
2018-09-13T10:44:51.906Z,35.20
2018-09-13T10:54:53.163Z,42.80
2018-09-13T11:04:54.432Z,43.50
2018-09-13T11:14:55.703Z,47.00
2018-09-13T11:24:57.742Z,50.60
2018-09-13T11:34:59.023Z,50.60
2018-09-13T11:45:00.294Z,47.80
2018-09-13T11:55:01.556Z,48.70
2018-09-13T12:05:02.818Z,50.80
2018-09-13T12:15:04.110Z,47.80
2018-09-13T12:25:05.403Z,47.70
2018-09-13T12:35:06.748Z,46.70
2018-09-13T12:45:08.147Z,49.00
2018-09-13T12:55:09.412Z,48.90
2018-09-13T13:05:10.678Z,47.10
2018-09-13T13:15:12.712Z,48.60
2018-09-13T13:25:14.593Z,48.60
2018-09-13T13:45:24.536Z,49.90
2018-09-13T13:55:25.791Z,51.40
2018-09-13T14:05:27.564Z,51.00
2018-09-13T14:15:28.827Z,52.50
2018-09-13T14:25:30.095Z,53.40
2018-09-13T14:45:38.544Z,54.70
2018-09-13T14:55:39.826Z,55.90
2018-09-13T15:05:41.120Z,55.60
2018-09-13T15:15:42.391Z,57.20
2018-09-13T15:25:43.705Z,58.20
2018-09-13T15:35:45.068Z,57.40
2018-09-13T15:45:47.099Z,61.00
2018-09-13T15:55:48.406Z,60.70
2018-09-13T16:05:50.759Z,61.60
2018-09-13T16:15:52.035Z,61.50
2018-09-13T16:25:55.352Z,63.20
2018-09-13T16:35:56.619Z,65.90
2018-09-13T16:45:58.663Z,72.30
2018-09-13T16:55:59.930Z,72.20
2018-09-13T17:06:01.321Z,75.70
2018-09-13T17:16:03.375Z,82.20
2018-09-13T17:26:04.654Z,82.20
2018-09-13T17:36:05.946Z,90.60
2018-09-13T17:46:07.228Z,99.90
2018-09-13T17:56:09.555Z,99.90
2018-09-13T18:06:11.571Z,99.90
2018-09-13T18:16:13.611Z,99.90
2018-09-13T18:26:14.870Z,99.90
2018-09-13T18:36:16.127Z,99.90
2018-09-13T18:46:17.404Z,99.90
2018-09-13T18:56:20.696Z,99.90
2018-09-13T19:06:21.950Z,99.90
2018-09-13T19:16:23.250Z,99.90
2018-09-13T19:26:24.517Z,99.90
2018-09-13T19:36:26.701Z,99.90
2018-09-13T19:46:28.329Z,99.90
2018-09-13T19:56:30.322Z,99.90
2018-09-13T20:06:31.566Z,99.90
2018-09-13T20:16:32.817Z,99.90
2018-09-13T20:26:34.822Z,99.90
2018-09-13T20:36:36.102Z,99.90
2018-09-13T20:46:37.408Z,99.90
2018-09-13T20:56:38.683Z,99.90
2018-09-13T21:06:39.954Z,99.90
2018-09-13T21:16:41.223Z,99.90
2018-09-13T21:26:42.488Z,99.90
2018-09-13T21:36:43.900Z,99.90
2018-09-13T21:46:45.934Z,99.90
2018-09-13T21:56:47.195Z,99.90
2018-09-13T22:06:48.467Z,99.90
2018-09-13T22:16:49.726Z,99.90
2018-09-13T22:26:50.983Z,99.90
2018-09-13T22:36:52.250Z,99.90
2018-09-13T22:46:53.509Z,99.90
2018-09-13T22:56:55.526Z,99.90
2018-09-13T23:06:56.784Z,99.90
2018-09-13T23:16:58.051Z,99.90
2018-09-13T23:27:03.784Z,99.90
2018-09-13T23:37:05.054Z,99.90
2018-09-13T23:47:06.319Z,99.90
2018-09-13T23:57:08.338Z,99.90
